Darstellungsparameter: Aktuell verwendete Einstellungen:
Skalierung der Graphiken ... ?
xyx+y,   Skalierungsfaktor:      Skalierung: Modus: x, Faktor: 1
Darstellungszeitraum ... ?
Vom - - bis: - -   Zeitraum: 15.04.2015 - 15.04.2015
Min/Max/Avg-Anzeige ... ?
Zeige MMA aktuell
Zeige MMA Monat
Zeige MMA alles
Zeige --A aktuell
Zeige --A Monat
Zeige --A alles
Keine MMA-Anzeige
MMA:
Minimum Maximum Average (ber die Originaldaten)
MMA-Basis: 15.04.2015 - 15.04.2015
Quicknavigation für Darstellung... ?
Tage:      1T, 2T, 3T, 5T -1T -2T -3T -5T +1T +2T +3T +5T
Wochen: 1W, 2W, 3W -1W -2W -3W +1W +2W +3W
Monate: 1M, 3M, 6M -1M -3M -6M +1M +3M +6M
Jahre:    1J, 3J, 5J, 10J -1J -3J -5J -10J +1J +3J +5J +10J
Nutze für die Darstellung ... ?
Originaldaten oder Mittelwerte auf ...
Stundenbasis Tagesbasis Wochenbasis
Monatsbasis Jahresbasis      Datenbasis: Original-Daten
Darstellen als:
Statistik (Auto) Statistik J:M      Darstellung:
Zur Graphik,    zurück zur Übersicht aller Sensoren.
 
Tabellarische Datenbersicht: ?
 
Sensor: Nr:Datum:Temp:Abs-Feuchte:Windchill:Wind:
Aussen-T/F 1 15-04-2015 00:00:00 12.6 C 8.63 g/m*3 12.6 C 0 km/h
2 15-04-2015 00:05:00 12.5 C 8.58 g/m*3 12.5 C 1.6 km/h
3 15-04-2015 00:10:00 12.4 C 8.52 g/m*3 12.4 C 1.6 km/h
4 15-04-2015 00:15:00 12.3 C 8.47 g/m*3 12.3 C 1.6 km/h
5 15-04-2015 00:20:00 12.2 C 8.42 g/m*3 12.2 C 1.6 km/h
6 15-04-2015 00:25:00 12.2 C 8.52 g/m*3 12.2 C 1.6 km/h
7 15-04-2015 00:30:00 12.3 C 8.47 g/m*3 12.3 C 1.6 km/h
8 15-04-2015 00:35:00 12.3 C 8.47 g/m*3 12.3 C 1.6 km/h
9 15-04-2015 00:40:00 12.3 C 8.47 g/m*3 12.3 C 1.6 km/h
10 15-04-2015 00:45:00 12.2 C 8.42 g/m*3 12.2 C 1.6 km/h
11 15-04-2015 00:50:00 12.1 C 8.36 g/m*3 12.1 C 3.2 km/h
12 15-04-2015 00:55:00 12.1 C 8.47 g/m*3 12.1 C 1.6 km/h
13 15-04-2015 01:00:00 12.1 C 8.36 g/m*3 12.1 C 1.6 km/h
14 15-04-2015 01:05:00 12.1 C 8.47 g/m*3 12.1 C 3.2 km/h
15 15-04-2015 01:10:00 12.1 C 8.47 g/m*3 12.1 C 3.2 km/h
16 15-04-2015 01:15:00 11.9 C 8.37 g/m*3 11.9 C 1.6 km/h
17 15-04-2015 01:20:00 11.8 C 8.31 g/m*3 11.8 C 1.6 km/h
18 15-04-2015 01:25:00 11.8 C 8.31 g/m*3 11.8 C 4.8 km/h
19 15-04-2015 01:30:00 11.8 C 8.21 g/m*3 11.8 C 1.6 km/h
20 15-04-2015 01:35:00 11.8 C 8.21 g/m*3 11.8 C 0 km/h
21 15-04-2015 01:40:00 11.7 C 8.16 g/m*3 11.7 C 4.8 km/h
22 15-04-2015 01:45:00 11.7 C 8.16 g/m*3 11.7 C 4.8 km/h
23 15-04-2015 01:50:00 11.7 C 8.16 g/m*3 11.7 C 1.6 km/h
24 15-04-2015 01:55:00 11.6 C 8.21 g/m*3 11.6 C 4.8 km/h
25 15-04-2015 02:00:00 11.5 C 8.16 g/m*3 11.5 C 1.6 km/h
Sensor: Nr:Datum:Temp:Abs-Feuchte:Windchill:Wind:
Aussen-T/F 26 15-04-2015 02:05:00 11.5 C 8.16 g/m*3 11.5 C 8.1 km/h
27 15-04-2015 02:10:00 11.5 C 8.16 g/m*3 11.5 C 3.2 km/h
28 15-04-2015 02:15:00 11.4 C 8.11 g/m*3 11.4 C 4.8 km/h
29 15-04-2015 02:20:00 11.3 C 8.06 g/m*3 11.3 C 3.2 km/h
30 15-04-2015 02:25:00 11.3 C 8.06 g/m*3 11.3 C 1.6 km/h
31 15-04-2015 02:30:00 11.3 C 8.16 g/m*3 11.3 C 4.8 km/h
32 15-04-2015 02:35:00 11.4 C 8.11 g/m*3 11.4 C 3.2 km/h
33 15-04-2015 02:40:00 11.4 C 8.11 g/m*3 11.4 C 3.2 km/h
34 15-04-2015 02:45:00 11.3 C 8.06 g/m*3 11.3 C 4.8 km/h
35 15-04-2015 02:50:00 11.3 C 8.06 g/m*3 11.3 C 4.8 km/h
36 15-04-2015 02:55:00 11.3 C 8.06 g/m*3 11.3 C 3.2 km/h
37 15-04-2015 03:00:00 11.2 C 8.11 g/m*3 11.2 C 6.4 km/h
38 15-04-2015 03:05:00 11.2 C 8.11 g/m*3 11.2 C 3.2 km/h
39 15-04-2015 03:10:00 11.1 C 8.06 g/m*3 11.1 C 1.6 km/h
40 15-04-2015 03:15:00 11 C 8.01 g/m*3 11 C 1.6 km/h
41 15-04-2015 03:20:00 10.9 C 8.06 g/m*3 10.9 C 1.6 km/h
42 15-04-2015 03:25:00 10.8 C 8.01 g/m*3 10.8 C 1.6 km/h
43 15-04-2015 03:30:00 10.7 C 8.05 g/m*3 10.7 C 1.6 km/h
44 15-04-2015 03:35:00 10.7 C 7.96 g/m*3 10.7 C 1.6 km/h
45 15-04-2015 03:40:00 10.6 C 7.91 g/m*3 10.6 C 1.6 km/h
46 15-04-2015 03:45:00 10.4 C 7.9 g/m*3 10.4 C 3.2 km/h
47 15-04-2015 03:50:00 10.3 C 7.95 g/m*3 10.3 C 1.6 km/h
48 15-04-2015 03:55:00 10.2 C 7.9 g/m*3 9.6 C 6.4 km/h
49 15-04-2015 04:00:00 10.2 C 7.9 g/m*3 10.2 C 1.6 km/h
50 15-04-2015 04:05:00 10.2 C 7.9 g/m*3 10.2 C 3.2 km/h
Sensor: Nr:Datum:Temp:Abs-Feuchte:Windchill:Wind:
Aussen-T/F 51 15-04-2015 04:10:00 10.2 C 7.9 g/m*3 10.2 C 0 km/h
52 15-04-2015 04:15:00 10.1 C 7.94 g/m*3 10.1 C 3.2 km/h
53 15-04-2015 04:20:00 10.1 C 7.94 g/m*3 10.1 C 3.2 km/h
54 15-04-2015 04:25:00 10 C 7.89 g/m*3 10 C 1.6 km/h
55 15-04-2015 04:30:00 9.9 C 7.84 g/m*3 9.9 C 1.6 km/h
56 15-04-2015 04:35:00 9.8 C 7.89 g/m*3 9.8 C 1.6 km/h
57 15-04-2015 04:40:00 9.7 C 7.84 g/m*3 9.7 C 0 km/h
58 15-04-2015 04:45:00 9.6 C 7.79 g/m*3 9.6 C 0 km/h
59 15-04-2015 04:50:00 9.4 C 7.69 g/m*3 9.4 C 0 km/h
60 15-04-2015 04:55:00 9.3 C 7.73 g/m*3 9.3 C 0 km/h
61 15-04-2015 05:00:00 9.2 C 7.59 g/m*3 9.2 C 0 km/h
62 15-04-2015 05:05:00 9 C 7.58 g/m*3 9 C 0 km/h
63 15-04-2015 05:10:00 8.8 C 7.49 g/m*3 8.8 C 0 km/h
64 15-04-2015 05:15:00 8.6 C 7.48 g/m*3 8.6 C 1.6 km/h
65 15-04-2015 05:20:00 8.6 C 7.56 g/m*3 8.6 C 1.6 km/h
66 15-04-2015 05:25:00 8.6 C 7.56 g/m*3 8.6 C 0 km/h
67 15-04-2015 05:30:00 8.4 C 7.47 g/m*3 8.4 C 0 km/h
68 15-04-2015 05:35:00 8.4 C 7.47 g/m*3 8.4 C 0 km/h
69 15-04-2015 05:40:00 8.4 C 7.55 g/m*3 8.4 C 0 km/h
70 15-04-2015 05:45:00 8.3 C 7.5 g/m*3 8.3 C 1.6 km/h
71 15-04-2015 05:50:00 8.3 C 7.5 g/m*3 8.3 C 0 km/h
72 15-04-2015 05:55:00 8.2 C 7.45 g/m*3 8.2 C 1.6 km/h
73 15-04-2015 06:00:00 8.1 C 7.41 g/m*3 8.1 C 0 km/h
74 15-04-2015 06:05:00 8 C 7.36 g/m*3 8 C 0 km/h
75 15-04-2015 06:10:00 7.9 C 7.39 g/m*3 7.9 C 0 km/h
Sensor: Nr:Datum:Temp:Abs-Feuchte:Windchill:Wind:
Aussen-T/F 76 15-04-2015 06:15:00 7.8 C 7.35 g/m*3 7.8 C 0 km/h
77 15-04-2015 06:20:00 7.8 C 7.43 g/m*3 7.8 C 1.6 km/h
78 15-04-2015 06:25:00 7.8 C 7.35 g/m*3 7.8 C 0 km/h
79 15-04-2015 06:30:00 7.7 C 7.3 g/m*3 7.7 C 1.6 km/h
80 15-04-2015 06:35:00 7.6 C 7.25 g/m*3 7.6 C 1.6 km/h
81 15-04-2015 06:40:00 7.5 C 7.28 g/m*3 7.5 C 0 km/h
82 15-04-2015 06:45:00 7.4 C 7.24 g/m*3 7.4 C 0 km/h
83 15-04-2015 06:50:00 7.3 C 7.19 g/m*3 7.3 C 0 km/h
84 15-04-2015 06:55:00 7.2 C 7.14 g/m*3 7.2 C 4.8 km/h
85 15-04-2015 07:00:00 7.1 C 7.1 g/m*3 7.1 C 3.2 km/h
86 15-04-2015 07:05:00 7.1 C 7.18 g/m*3 7.1 C 0 km/h
87 15-04-2015 07:10:00 7.2 C 7.22 g/m*3 7.2 C 0 km/h
88 15-04-2015 07:15:00 7.1 C 7.18 g/m*3 7.1 C 0 km/h
89 15-04-2015 07:20:00 7.1 C 7.18 g/m*3 7.1 C 0 km/h
90 15-04-2015 07:25:00 7.1 C 7.25 g/m*3 7.1 C 0 km/h
91 15-04-2015 07:30:00 7.1 C 7.25 g/m*3 7.1 C 0 km/h
92 15-04-2015 07:35:00 7.2 C 7.3 g/m*3 7.2 C 0 km/h
93 15-04-2015 07:40:00 7.2 C 7.3 g/m*3 7.2 C 0 km/h
94 15-04-2015 07:45:00 7.3 C 7.35 g/m*3 7.3 C 0 km/h
95 15-04-2015 07:50:00 7.3 C 7.35 g/m*3 7.3 C 0 km/h
96 15-04-2015 07:55:00 7.4 C 7.4 g/m*3 7.4 C 0 km/h
97 15-04-2015 08:00:00 7.5 C 7.44 g/m*3 7.5 C 0 km/h
98 15-04-2015 08:05:00 7.6 C 7.49 g/m*3 7.6 C 0 km/h
99 15-04-2015 08:10:00 7.7 C 7.54 g/m*3 7.7 C 0 km/h
100 15-04-2015 08:15:00 7.8 C 7.67 g/m*3 7.8 C 0 km/h
Sensor: Nr:Datum:Temp:Abs-Feuchte:Windchill:Wind:
Aussen-T/F 101 15-04-2015 08:20:00 7.8 C 7.67 g/m*3 7.8 C 0 km/h
102 15-04-2015 08:25:00 7.9 C 7.64 g/m*3 7.9 C 0 km/h
103 15-04-2015 08:30:00 7.9 C 7.64 g/m*3 7.9 C 0 km/h
104 15-04-2015 08:35:00 8.1 C 7.82 g/m*3 8.1 C 1.6 km/h
105 15-04-2015 08:40:00 8.2 C 7.87 g/m*3 8.2 C 0 km/h
106 15-04-2015 08:45:00 8.4 C 7.97 g/m*3 8.4 C 0 km/h
107 15-04-2015 08:50:00 8.6 C 7.99 g/m*3 8.6 C 3.2 km/h
108 15-04-2015 08:55:00 8.7 C 8.04 g/m*3 8.7 C 0 km/h
109 15-04-2015 09:00:00 8.8 C 8.09 g/m*3 8.8 C 0 km/h
110 15-04-2015 09:05:00 8.9 C 8.15 g/m*3 8.9 C 0 km/h
111 15-04-2015 09:10:00 9.1 C 8.16 g/m*3 9.1 C 0 km/h
112 15-04-2015 09:15:00 9.2 C 8.3 g/m*3 9.2 C 0 km/h
113 15-04-2015 09:20:00 9.4 C 8.32 g/m*3 9.4 C 1.6 km/h
114 15-04-2015 09:25:00 9.7 C 8.48 g/m*3 9.7 C 3.2 km/h
115 15-04-2015 09:30:00 10 C 8.55 g/m*3 10 C 1.6 km/h
116 15-04-2015 09:35:00 10.3 C 8.71 g/m*3 10.3 C 3.2 km/h
117 15-04-2015 09:40:00 10.6 C 8.78 g/m*3 10.6 C 0 km/h
118 15-04-2015 09:45:00 11.1 C 8.96 g/m*3 11.1 C 3.2 km/h
119 15-04-2015 09:50:00 11.5 C 9.09 g/m*3 11.5 C 1.6 km/h
120 15-04-2015 09:55:00 11.8 C 9.16 g/m*3 11.8 C 4.8 km/h
121 15-04-2015 10:00:00 12.2 C 9.17 g/m*3 12.2 C 4.8 km/h
122 15-04-2015 10:05:00 12.8 C 9.41 g/m*3 12.8 C 6.4 km/h
123 15-04-2015 10:10:00 13.2 C 9.53 g/m*3 13.2 C 1.6 km/h
124 15-04-2015 10:15:00 13.4 C 9.53 g/m*3 13.4 C 1.6 km/h
125 15-04-2015 10:20:00 13.6 C 9.65 g/m*3 13.6 C 3.2 km/h
Sensor: Nr:Datum:Temp:Abs-Feuchte:Windchill:Wind:
Aussen-T/F 126 15-04-2015 10:25:00 13.7 C 9.59 g/m*3 13.7 C 1.6 km/h
127 15-04-2015 10:30:00 14.2 C 9.52 g/m*3 14.2 C 6.4 km/h
128 15-04-2015 10:35:00 14.8 C 9.63 g/m*3 14.8 C 0 km/h
129 15-04-2015 10:40:00 15.2 C 9.73 g/m*3 15.2 C 4.8 km/h
130 15-04-2015 10:45:00 15.7 C 9.77 g/m*3 15.7 C 6.4 km/h
131 15-04-2015 10:50:00 16 C 9.67 g/m*3 16 C 4.8 km/h
132 15-04-2015 10:55:00 16.3 C 9.57 g/m*3 16.3 C 4.8 km/h
133 15-04-2015 11:00:00 16.7 C 9.66 g/m*3 16.7 C 4.8 km/h
134 15-04-2015 11:05:00 17.1 C 9.9 g/m*3 17.1 C 4.8 km/h
135 15-04-2015 11:10:00 17.4 C 9.93 g/m*3 17.4 C 4.8 km/h
136 15-04-2015 11:15:00 18 C 10.14 g/m*3 18 C 6.4 km/h
137 15-04-2015 11:20:00 18.4 C 9.91 g/m*3 18.4 C 3.2 km/h
138 15-04-2015 11:25:00 18.8 C 9.82 g/m*3 18.8 C 6.4 km/h
139 15-04-2015 11:30:00 19.1 C 10 g/m*3 19.1 C 6.4 km/h
140 15-04-2015 11:35:00 19.3 C 9.62 g/m*3 19.3 C 9.7 km/h
141 15-04-2015 11:40:00 19.5 C 9.9 g/m*3 19.5 C 9.7 km/h
142 15-04-2015 11:45:00 19.8 C 9.74 g/m*3 19.8 C 6.4 km/h
143 15-04-2015 11:50:00 20.1 C 9.73 g/m*3 20.1 C 4.8 km/h
144 15-04-2015 11:55:00 20.3 C 10.02 g/m*3 20.3 C 4.8 km/h
145 15-04-2015 12:00:00 20.5 C 9.43 g/m*3 20.5 C 6.4 km/h
146 15-04-2015 12:05:00 20.7 C 9.54 g/m*3 20.7 C 6.4 km/h
147 15-04-2015 12:10:00 20.9 C 9.47 g/m*3 20.9 C 8.1 km/h
148 15-04-2015 12:15:00 21.1 C 9.58 g/m*3 21.1 C 8.1 km/h
149 15-04-2015 12:20:00 21.3 C 9.32 g/m*3 21.3 C 9.7 km/h
150 15-04-2015 12:25:00 21.4 C 9.19 g/m*3 21.4 C 9.7 km/h
Sensor: Nr:Datum:Temp:Abs-Feuchte:Windchill:Wind:
Aussen-T/F 151 15-04-2015 12:30:00 21.6 C 9.29 g/m*3 21.6 C 11.3 km/h
152 15-04-2015 12:35:00 21.8 C 9.02 g/m*3 21.8 C 11.3 km/h
153 15-04-2015 12:40:00 22.2 C 8.83 g/m*3 22.2 C 9.7 km/h
154 15-04-2015 12:45:00 22.5 C 8.59 g/m*3 22.5 C 9.7 km/h
155 15-04-2015 12:50:00 22.8 C 8.94 g/m*3 22.8 C 12.9 km/h
156 15-04-2015 12:55:00 23 C 8.43 g/m*3 23 C 14.5 km/h
157 15-04-2015 13:00:00 23.2 C 8.32 g/m*3 23.2 C 14.5 km/h
158 15-04-2015 13:05:00 23.4 C 8.2 g/m*3 23.4 C 14.5 km/h
159 15-04-2015 13:10:00 23.4 C 8.2 g/m*3 23.4 C 16.1 km/h
160 15-04-2015 13:15:00 23.6 C 8.51 g/m*3 23.6 C 9.7 km/h
161 15-04-2015 13:20:00 23.7 C 8.34 g/m*3 23.7 C 8.1 km/h
162 15-04-2015 13:25:00 23.9 C 8.22 g/m*3 23.9 C 16.1 km/h
163 15-04-2015 13:30:00 24 C 8.27 g/m*3 24 C 11.3 km/h
164 15-04-2015 13:35:00 24.1 C 8.31 g/m*3 24.1 C 16.1 km/h
165 15-04-2015 13:40:00 24.3 C 8.41 g/m*3 24.3 C 11.3 km/h
166 15-04-2015 13:45:00 24.4 C 7.79 g/m*3 24.4 C 14.5 km/h
167 15-04-2015 13:50:00 24.4 C 8.46 g/m*3 24.4 C 8.1 km/h
168 15-04-2015 13:55:00 24.4 C 7.79 g/m*3 24.4 C 11.3 km/h
169 15-04-2015 14:00:00 24.6 C 7.88 g/m*3 24.6 C 16.1 km/h
170 15-04-2015 14:05:00 24.8 C 8.19 g/m*3 24.8 C 12.9 km/h
171 15-04-2015 14:10:00 24.8 C 8.19 g/m*3 24.8 C 12.9 km/h
172 15-04-2015 14:15:00 24.8 C 8.19 g/m*3 24.8 C 11.3 km/h
173 15-04-2015 14:20:00 25 C 7.83 g/m*3 25 C 6.4 km/h
174 15-04-2015 14:25:00 25.2 C 7.92 g/m*3 25.2 C 12.9 km/h
175 15-04-2015 14:30:00 25.1 C 7.64 g/m*3 25.1 C 16.1 km/h
Sensor: Nr:Datum:Temp:Abs-Feuchte:Windchill:Wind:
Aussen-T/F 176 15-04-2015 14:35:00 25.2 C 7.45 g/m*3 25.2 C 9.7 km/h
177 15-04-2015 14:40:00 25.3 C 7.49 g/m*3 25.3 C 11.3 km/h
178 15-04-2015 14:45:00 25.4 C 7.06 g/m*3 25.4 C 14.5 km/h
179 15-04-2015 14:50:00 25.4 C 7.06 g/m*3 25.4 C 22.5 km/h
180 15-04-2015 14:55:00 25.4 C 7.3 g/m*3 25.4 C 22.5 km/h
181 15-04-2015 15:00:00 25.4 C 7.06 g/m*3 25.4 C 14.5 km/h
182 15-04-2015 15:05:00 25.6 C 7.38 g/m*3 25.6 C 11.3 km/h
183 15-04-2015 15:10:00 25.7 C 7.42 g/m*3 25.7 C 16.1 km/h
184 15-04-2015 15:15:00 25.6 C 7.38 g/m*3 25.6 C 14.5 km/h
185 15-04-2015 15:20:00 25.7 C 7.42 g/m*3 25.7 C 11.3 km/h
186 15-04-2015 15:25:00 25.8 C 7.22 g/m*3 25.8 C 12.9 km/h
187 15-04-2015 15:30:00 25.8 C 7.22 g/m*3 25.8 C 16.1 km/h
188 15-04-2015 15:35:00 25.9 C 7.75 g/m*3 25.9 C 12.9 km/h
189 15-04-2015 15:40:00 26.1 C 8.08 g/m*3 26.1 C 9.7 km/h
190 15-04-2015 15:45:00 26.3 C 7.43 g/m*3 26.3 C 14.5 km/h
191 15-04-2015 15:50:00 26.2 C 7.63 g/m*3 26.2 C 17.7 km/h
192 15-04-2015 15:55:00 26.2 C 7.39 g/m*3 26.2 C 17.7 km/h
193 15-04-2015 16:00:00 26.2 C 7.14 g/m*3 26.2 C 11.3 km/h
194 15-04-2015 16:05:00 26.4 C 6.97 g/m*3 26.4 C 12.9 km/h
195 15-04-2015 16:10:00 26.6 C 7.05 g/m*3 26.6 C 9.7 km/h
196 15-04-2015 16:15:00 26.5 C 7.76 g/m*3 26.5 C 11.3 km/h
197 15-04-2015 16:20:00 26.7 C 8.35 g/m*3 26.7 C 12.9 km/h
198 15-04-2015 16:25:00 26.8 C 7.38 g/m*3 26.8 C 17.7 km/h
199 15-04-2015 16:30:00 26.7 C 7.09 g/m*3 26.7 C 11.3 km/h
200 15-04-2015 16:35:00 26.7 C 7.34 g/m*3 26.7 C 14.5 km/h
Sensor: Nr:Datum:Temp:Abs-Feuchte:Windchill:Wind:
Aussen-T/F 201 15-04-2015 16:40:00 26.7 C 7.34 g/m*3 26.7 C 11.3 km/h
202 15-04-2015 16:45:00 26.7 C 7.34 g/m*3 26.7 C 11.3 km/h
203 15-04-2015 16:50:00 26.8 C 7.38 g/m*3 26.8 C 11.3 km/h
204 15-04-2015 16:55:00 26.8 C 8.4 g/m*3 26.8 C 12.9 km/h
205 15-04-2015 17:00:00 26.9 C 7.42 g/m*3 26.9 C 8.1 km/h
206 15-04-2015 17:05:00 27 C 7.21 g/m*3 27 C 16.1 km/h
207 15-04-2015 17:10:00 26.9 C 7.17 g/m*3 26.9 C 12.9 km/h
208 15-04-2015 17:15:00 26.8 C 6.87 g/m*3 26.8 C 14.5 km/h
209 15-04-2015 17:20:00 26.8 C 7.38 g/m*3 26.8 C 11.3 km/h
210 15-04-2015 17:25:00 26.8 C 7.13 g/m*3 26.8 C 11.3 km/h
211 15-04-2015 17:30:00 26.8 C 6.87 g/m*3 26.8 C 12.9 km/h
212 15-04-2015 17:35:00 26.8 C 7.38 g/m*3 26.8 C 14.5 km/h
213 15-04-2015 17:40:00 26.7 C 6.83 g/m*3 26.7 C 11.3 km/h
214 15-04-2015 17:45:00 26.4 C 6.47 g/m*3 26.4 C 20.9 km/h
215 15-04-2015 17:50:00 26.1 C 6.61 g/m*3 26.1 C 16.1 km/h
216 15-04-2015 17:55:00 25.8 C 6.5 g/m*3 25.8 C 20.9 km/h
217 15-04-2015 18:00:00 25.5 C 6.87 g/m*3 25.5 C 9.7 km/h
218 15-04-2015 18:05:00 25.2 C 6.52 g/m*3 25.2 C 11.3 km/h
219 15-04-2015 18:10:00 25.1 C 6.71 g/m*3 25.1 C 8.1 km/h
220 15-04-2015 18:15:00 24.8 C 6.83 g/m*3 24.8 C 6.4 km/h
221 15-04-2015 18:20:00 24.7 C 7.47 g/m*3 24.7 C 4.8 km/h
222 15-04-2015 18:25:00 24.5 C 7.16 g/m*3 24.5 C 6.4 km/h
223 15-04-2015 18:30:00 24.3 C 6.86 g/m*3 24.3 C 11.3 km/h
224 15-04-2015 18:35:00 24.2 C 6.82 g/m*3 24.2 C 9.7 km/h
225 15-04-2015 18:40:00 23.9 C 7.79 g/m*3 23.9 C 11.3 km/h
Sensor: Nr:Datum:Temp:Abs-Feuchte:Windchill:Wind:
Aussen-T/F 226 15-04-2015 18:45:00 23.8 C 8.17 g/m*3 23.8 C 3.2 km/h
227 15-04-2015 18:50:00 23.8 C 7.74 g/m*3 23.8 C 4.8 km/h
228 15-04-2015 18:55:00 24.1 C 7.66 g/m*3 24.1 C 4.8 km/h
229 15-04-2015 19:00:00 24.5 C 7.61 g/m*3 24.5 C 9.7 km/h
230 15-04-2015 19:05:00 24.8 C 7.28 g/m*3 24.8 C 11.3 km/h
231 15-04-2015 19:10:00 25.1 C 7.41 g/m*3 25.1 C 6.4 km/h
232 15-04-2015 19:15:00 25.2 C 7.45 g/m*3 25.2 C 9.7 km/h
233 15-04-2015 19:20:00 25.1 C 7.64 g/m*3 25.1 C 11.3 km/h
234 15-04-2015 19:25:00 24.9 C 7.55 g/m*3 24.9 C 9.7 km/h
235 15-04-2015 19:30:00 24.7 C 7.92 g/m*3 24.7 C 6.4 km/h
236 15-04-2015 19:35:00 24.3 C 7.97 g/m*3 24.3 C 1.6 km/h
237 15-04-2015 19:40:00 23.9 C 8 g/m*3 23.9 C 9.7 km/h
238 15-04-2015 19:45:00 23.6 C 8.08 g/m*3 23.6 C 6.4 km/h
239 15-04-2015 19:50:00 23.1 C 8.27 g/m*3 23.1 C 3.2 km/h
240 15-04-2015 19:55:00 22.3 C 8.49 g/m*3 22.3 C 4.8 km/h
241 15-04-2015 20:00:00 21.7 C 8.2 g/m*3 21.7 C 3.2 km/h
242 15-04-2015 20:05:00 21.2 C 8.15 g/m*3 21.2 C 3.2 km/h
243 15-04-2015 20:10:00 20.6 C 8.59 g/m*3 20.6 C 3.2 km/h
244 15-04-2015 20:15:00 20.1 C 8.52 g/m*3 20.1 C 1.6 km/h
245 15-04-2015 20:20:00 19.6 C 8.44 g/m*3 19.6 C 1.6 km/h
246 15-04-2015 20:25:00 19.1 C 8.52 g/m*3 19.1 C 3.2 km/h
247 15-04-2015 20:30:00 18.7 C 8.17 g/m*3 18.7 C 3.2 km/h
248 15-04-2015 20:35:00 18.4 C 8.49 g/m*3 18.4 C 4.8 km/h
249 15-04-2015 20:40:00 18.2 C 8.7 g/m*3 18.2 C 4.8 km/h
250 15-04-2015 20:45:00 17.9 C 8.7 g/m*3 17.9 C 4.8 km/h
Sensor: Nr:Datum:Temp:Abs-Feuchte:Windchill:Wind:
Aussen-T/F 251 15-04-2015 20:50:00 17.8 C 8.5 g/m*3 17.8 C 4.8 km/h
252 15-04-2015 20:55:00 17.7 C 8.6 g/m*3 17.7 C 3.2 km/h
253 15-04-2015 21:00:00 17.7 C 8.75 g/m*3 17.7 C 1.6 km/h
254 15-04-2015 21:05:00 17.7 C 8.6 g/m*3 17.7 C 6.4 km/h
255 15-04-2015 21:10:00 17.6 C 8.85 g/m*3 17.6 C 6.4 km/h
256 15-04-2015 21:15:00 17.3 C 8.84 g/m*3 17.3 C 6.4 km/h
257 15-04-2015 21:20:00 17.1 C 9.03 g/m*3 17.1 C 8.1 km/h
258 15-04-2015 21:25:00 16.8 C 8.86 g/m*3 16.8 C 6.4 km/h
259 15-04-2015 21:30:00 16.7 C 8.81 g/m*3 16.7 C 8.1 km/h
260 15-04-2015 21:35:00 16.6 C 8.9 g/m*3 16.6 C 8.1 km/h
261 15-04-2015 21:40:00 16.4 C 8.79 g/m*3 16.4 C 4.8 km/h
262 15-04-2015 21:45:00 16.3 C 8.88 g/m*3 16.3 C 4.8 km/h
263 15-04-2015 21:50:00 16.2 C 8.96 g/m*3 16.2 C 6.4 km/h
264 15-04-2015 21:55:00 16.1 C 9.18 g/m*3 16.1 C 3.2 km/h
265 15-04-2015 22:00:00 15.9 C 8.94 g/m*3 15.9 C 1.6 km/h
266 15-04-2015 22:05:00 15.9 C 9.07 g/m*3 15.9 C 1.6 km/h
267 15-04-2015 22:10:00 15.8 C 9.02 g/m*3 15.8 C 3.2 km/h
268 15-04-2015 22:15:00 15.7 C 8.96 g/m*3 15.7 C 1.6 km/h
269 15-04-2015 22:20:00 15.6 C 9.04 g/m*3 15.6 C 1.6 km/h
270 15-04-2015 22:25:00 15.3 C 8.88 g/m*3 15.3 C 3.2 km/h
271 15-04-2015 22:30:00 15.2 C 8.96 g/m*3 15.2 C 3.2 km/h
272 15-04-2015 22:35:00 15.1 C 9.16 g/m*3 15.1 C 1.6 km/h
273 15-04-2015 22:40:00 14.9 C 8.92 g/m*3 14.9 C 1.6 km/h
274 15-04-2015 22:45:00 14.8 C 8.99 g/m*3 14.8 C 1.6 km/h
275 15-04-2015 22:50:00 14.7 C 9.07 g/m*3 14.7 C 0 km/h
Sensor: Nr:Datum:Temp:Abs-Feuchte:Windchill:Wind:
Aussen-T/F 276 15-04-2015 22:55:00 14.4 C 8.78 g/m*3 14.4 C 1.6 km/h
277 15-04-2015 23:00:00 14.4 C 8.78 g/m*3 14.4 C 4.8 km/h
278 15-04-2015 23:05:00 14.4 C 8.9 g/m*3 14.4 C 0 km/h
279 15-04-2015 23:10:00 14.3 C 8.85 g/m*3 14.3 C 0 km/h
280 15-04-2015 23:15:00 14.2 C 8.91 g/m*3 14.2 C 0 km/h
281 15-04-2015 23:20:00 14 C 8.81 g/m*3 14 C 0 km/h
282 15-04-2015 23:25:00 13.9 C 8.51 g/m*3 13.9 C 0 km/h
283 15-04-2015 23:30:00 13.9 C 8.51 g/m*3 13.9 C 0 km/h
284 15-04-2015 23:35:00 13.8 C 8.46 g/m*3 13.8 C 0 km/h
285 15-04-2015 23:40:00 13.7 C 8.64 g/m*3 13.7 C 1.6 km/h
286 15-04-2015 23:45:00 13.6 C 8.71 g/m*3 13.6 C 0 km/h
287 15-04-2015 23:50:00 13.3 C 8.55 g/m*3 13.3 C 0 km/h
288 15-04-2015 23:55:00 13.2 C 8.61 g/m*3 13.2 C 0 km/h

Legende:
   Min
   Max


Maximal/Minimal-Werte vom 15.04.2015 - 15.04.2015

Sensor Min Max Avg
Temp
(Aussen-T/F)
7.1 °C
15-04-2015  07:00:00
27 °C
15-04-2015  17:05:00
16.43 °C
Abs-Feuchte
(Aussen-T/F)
6.47 g/m*3
15-04-2015  17:45:00
10.14 g/m*3
15-04-2015  11:15:00
8.12 g/m*3
Windchill
(Aussen-T/F)
7.1 C
15-04-2015  07:00:00
27 C
15-04-2015  17:05:00
16.38 C

Die Daten stammen von einer Davis Vantage Pro 2 Wetter-Station und werden unter Linux mit der Software wview2wettercgi und aufbereitet. Alle Angaben erfolgen ohne Gewähr für ihre Vollständigkeit oder Richtigkeit.
Kontakt: Rainer Krienke krienke@uni-koblenz.de . Meine Webseiten an der Uni Koblenz oder privat.
Version: $Revision: 0.78 $